sensor_id;sensor_type;location;lat;lon;timestamp;pressure;altitude;pressure_sealevel;temperature;humidity
929;BME280;451;47.988;7.842;2022-07-23T00:07:53;98398.53;;;25.89;77.13
929;BME280;451;47.988;7.842;2022-07-23T00:16:55;98443.13;;;25.19;82.10
929;BME280;451;47.988;7.842;2022-07-23T00:25:56;98419.00;;;24.77;84.36
929;BME280;451;47.988;7.842;2022-07-23T00:34:58;98423.25;;;24.63;80.85
929;BME280;451;47.988;7.842;2022-07-23T00:44:17;98386.88;;;25.17;76.64
929;BME280;451;47.988;7.842;2022-07-23T00:53:19;98350.03;;;25.38;76.02
929;BME280;451;47.988;7.842;2022-07-23T01:02:21;98372.94;;;25.71;76.08
929;BME280;451;47.988;7.842;2022-07-23T01:11:23;98355.94;;;26.01;78.37
929;BME280;451;47.988;7.842;2022-07-23T01:20:26;98329.88;;;25.66;80.89
929;BME280;451;47.988;7.842;2022-07-23T01:29:29;98314.75;;;25.40;82.37
929;BME280;451;47.988;7.842;2022-07-23T01:38:33;98355.94;;;25.15;100.00
929;BME280;451;47.988;7.842;2022-07-23T01:47:35;98344.78;;;22.21;100.00
929;BME280;451;47.988;7.842;2022-07-23T01:56:37;98353.22;;;22.12;100.00
929;BME280;451;47.988;7.842;2022-07-23T02:05:39;98370.72;;;21.65;100.00
929;BME280;451;47.988;7.842;2022-07-23T02:14:41;98400.72;;;21.67;100.00
929;BME280;451;47.988;7.842;2022-07-23T02:23:44;98409.63;;;20.99;100.00
929;BME280;451;47.988;7.842;2022-07-23T02:32:45;98417.09;;;21.25;100.00
929;BME280;451;47.988;7.842;2022-07-23T02:41:47;98424.66;;;21.28;100.00
929;BME280;451;47.988;7.842;2022-07-23T02:50:49;98439.22;;;21.21;100.00
929;BME280;451;47.988;7.842;2022-07-23T02:59:56;98441.91;;;21.66;100.00
929;BME280;451;47.988;7.842;2022-07-23T03:08:58;98430.06;;;21.05;100.00
929;BME280;451;47.988;7.842;2022-07-23T03:18:00;98475.66;;;21.67;100.00
929;BME280;451;47.988;7.842;2022-07-23T03:27:03;98477.09;;;21.58;100.00
929;BME280;451;47.988;7.842;2022-07-23T03:36:05;98502.56;;;21.60;100.00
929;BME280;451;47.988;7.842;2022-07-23T03:45:13;98533.66;;;21.78;100.00
929;BME280;451;47.988;7.842;2022-07-23T03:54:16;98504.72;;;21.47;100.00
929;BME280;451;47.988;7.842;2022-07-23T04:03:18;98501.66;;;21.26;100.00
929;BME280;451;47.988;7.842;2022-07-23T04:12:21;98461.47;;;21.38;100.00
929;BME280;451;47.988;7.842;2022-07-23T04:21:23;98490.09;;;21.66;100.00
929;BME280;451;47.988;7.842;2022-07-23T04:30:27;98509.72;;;21.88;100.00
929;BME280;451;47.988;7.842;2022-07-23T04:39:31;98514.09;;;21.78;100.00
929;BME280;451;47.988;7.842;2022-07-23T04:48:33;98519.03;;;22.14;100.00
929;BME280;451;47.988;7.842;2022-07-23T04:57:43;98512.13;;;22.18;100.00
929;BME280;451;47.988;7.842;2022-07-23T05:06:45;98508.09;;;21.87;100.00
929;BME280;451;47.988;7.842;2022-07-23T05:15:47;98486.44;;;22.72;100.00
929;BME280;451;47.988;7.842;2022-07-23T05:24:49;98493.63;;;23.10;100.00
929;BME280;451;47.988;7.842;2022-07-23T05:33:50;98475.34;;;23.07;100.00
929;BME280;451;47.988;7.842;2022-07-23T05:42:52;98492.75;;;23.48;100.00
929;BME280;451;47.988;7.842;2022-07-23T05:51:54;98529.41;;;23.43;100.00
929;BME280;451;47.988;7.842;2022-07-23T06:01:06;98510.94;;;24.00;100.00
929;BME280;451;47.988;7.842;2022-07-23T06:10:16;98555.66;;;24.11;100.00
929;BME280;451;47.988;7.842;2022-07-23T06:19:18;98552.09;;;24.05;100.00
929;BME280;451;47.988;7.842;2022-07-23T06:28:21;98564.63;;;24.54;100.00
929;BME280;451;47.988;7.842;2022-07-23T06:37:22;98536.97;;;23.94;100.00
929;BME280;451;47.988;7.842;2022-07-23T06:46:24;98561.97;;;24.22;100.00
929;BME280;451;47.988;7.842;2022-07-23T06:55:26;98568.22;;;24.32;100.00
929;BME280;451;47.988;7.842;2022-07-23T07:04:28;98583.97;;;25.29;100.00
929;BME280;451;47.988;7.842;2022-07-23T07:13:30;98585.56;;;25.30;100.00
929;BME280;451;47.988;7.842;2022-07-23T07:22:32;98599.53;;;25.22;100.00
929;BME280;451;47.988;7.842;2022-07-23T07:31:34;98569.97;;;25.43;100.00
929;BME280;451;47.988;7.842;2022-07-23T07:40:35;98622.53;;;26.28;100.00
929;BME280;451;47.988;7.842;2022-07-23T07:49:37;98635.50;;;26.36;100.00
929;BME280;451;47.988;7.842;2022-07-23T07:58:39;98625.25;;;26.83;93.96
929;BME280;451;47.988;7.842;2022-07-23T08:07:40;98631.19;;;26.50;93.65
929;BME280;451;47.988;7.842;2022-07-23T08:16:42;98606.38;;;26.48;92.81
929;BME280;451;47.988;7.842;2022-07-23T08:25:44;98612.25;;;27.21;91.28
929;BME280;451;47.988;7.842;2022-07-23T08:34:46;98628.31;;;27.66;81.21
929;BME280;451;47.988;7.842;2022-07-23T08:43:48;98623.84;;;28.79;74.78
929;BME280;451;47.988;7.842;2022-07-23T08:52:51;98626.44;;;28.21;73.57
929;BME280;451;47.988;7.842;2022-07-23T09:01:52;98630.47;;;29.20;71.77
929;BME280;451;47.988;7.842;2022-07-23T09:10:57;98618.16;;;29.99;67.92
929;BME280;451;47.988;7.842;2022-07-23T09:20:11;98629.56;;;29.54;66.71
929;BME280;451;47.988;7.842;2022-07-23T09:29:17;98633.84;;;29.60;68.69
929;BME280;451;47.988;7.842;2022-07-23T09:38:20;98617.69;;;30.11;68.09
929;BME280;451;47.988;7.842;2022-07-23T09:47:25;98631.75;;;29.28;68.80
929;BME280;451;47.988;7.842;2022-07-23T09:56:27;98621.72;;;29.52;69.74
929;BME280;451;47.988;7.842;2022-07-23T10:05:30;98633.03;;;30.02;69.41
929;BME280;451;47.988;7.842;2022-07-23T10:14:50;98640.53;;;30.29;61.31
929;BME280;451;47.988;7.842;2022-07-23T10:24:09;98638.78;;;31.03;56.00
929;BME280;451;47.988;7.842;2022-07-23T10:33:17;98640.69;;;31.02;54.20
929;BME280;451;47.988;7.842;2022-07-23T10:42:33;98638.03;;;30.51;54.78
929;BME280;451;47.988;7.842;2022-07-23T10:51:36;98627.97;;;31.85;51.88
929;BME280;451;47.988;7.842;2022-07-23T11:00:39;98646.81;;;30.62;64.29
929;BME280;451;47.988;7.842;2022-07-23T11:09:42;98647.03;;;30.65;65.66
929;BME280;451;47.988;7.842;2022-07-23T11:27:47;98633.09;;;31.18;64.73
929;BME280;451;47.988;7.842;2022-07-23T11:36:50;98643.53;;;32.42;57.82
929;BME280;451;47.988;7.842;2022-07-23T11:45:56;98633.13;;;31.73;57.44
929;BME280;451;47.988;7.842;2022-07-23T12:04:06;98617.13;;;32.43;54.77
929;BME280;451;47.988;7.842;2022-07-23T12:13:13;98628.19;;;31.47;61.01
929;BME280;451;47.988;7.842;2022-07-23T12:22:15;98612.97;;;31.74;57.52
929;BME280;451;47.988;7.842;2022-07-23T12:31:25;98622.06;;;32.19;55.62
929;BME280;451;47.988;7.842;2022-07-23T12:49:31;98570.16;;;30.97;56.69
929;BME280;451;47.988;7.842;2022-07-23T12:58:46;98600.91;;;32.60;52.49
929;BME280;451;47.988;7.842;2022-07-23T13:07:48;98599.88;;;31.21;58.31
929;BME280;451;47.988;7.842;2022-07-23T13:16:51;98588.84;;;31.94;52.70
929;BME280;451;47.988;7.842;2022-07-23T13:25:54;98590.72;;;31.31;54.06
929;BME280;451;47.988;7.842;2022-07-23T13:34:56;98578.59;;;32.27;51.00
929;BME280;451;47.988;7.842;2022-07-23T13:43:58;98576.84;;;32.76;49.05
929;BME280;451;47.988;7.842;2022-07-23T13:53:05;98581.00;;;33.04;48.47
929;BME280;451;47.988;7.842;2022-07-23T14:02:07;98562.50;;;32.39;46.98
929;BME280;451;47.988;7.842;2022-07-23T14:11:09;98564.56;;;33.27;45.50
929;BME280;451;47.988;7.842;2022-07-23T14:20:12;98549.69;;;33.33;44.13
929;BME280;451;47.988;7.842;2022-07-23T14:29:14;98562.00;;;32.37;49.78
929;BME280;451;47.988;7.842;2022-07-23T14:38:15;98562.94;;;31.20;55.62
929;BME280;451;47.988;7.842;2022-07-23T14:47:17;98539.00;;;32.21;51.83
929;BME280;451;47.988;7.842;2022-07-23T14:56:19;98559.19;;;31.57;51.34
929;BME280;451;47.988;7.842;2022-07-23T15:05:21;98559.59;;;32.00;51.75
929;BME280;451;47.988;7.842;2022-07-23T15:14:23;98572.59;;;31.67;53.24
929;BME280;451;47.988;7.842;2022-07-23T15:23:24;98541.72;;;31.22;53.99
929;BME280;451;47.988;7.842;2022-07-23T15:32:26;98528.28;;;32.25;52.06
929;BME280;451;47.988;7.842;2022-07-23T15:41:28;98564.91;;;32.05;53.19
929;BME280;451;47.988;7.842;2022-07-23T15:50:30;98552.25;;;31.37;51.83
929;BME280;451;47.988;7.842;2022-07-23T15:59:31;98557.47;;;31.75;47.81
929;BME280;451;47.988;7.842;2022-07-23T16:08:33;98553.97;;;31.96;47.80
929;BME280;451;47.988;7.842;2022-07-23T16:17:35;98538.34;;;31.66;45.41
929;BME280;451;47.988;7.842;2022-07-23T16:26:37;98528.22;;;31.80;44.82
929;BME280;451;47.988;7.842;2022-07-23T16:35:39;98545.13;;;31.41;46.86
929;BME280;451;47.988;7.842;2022-07-23T16:44:41;98523.66;;;31.53;46.33
929;BME280;451;47.988;7.842;2022-07-23T16:53:42;98549.91;;;31.58;48.66
929;BME280;451;47.988;7.842;2022-07-23T17:02:44;98534.72;;;30.42;51.74
929;BME280;451;47.988;7.842;2022-07-23T17:11:46;98556.09;;;29.98;54.07
929;BME280;451;47.988;7.842;2022-07-23T17:20:48;98545.94;;;29.66;55.54
929;BME280;451;47.988;7.842;2022-07-23T17:29:51;98503.59;;;28.85;58.92
929;BME280;451;47.988;7.842;2022-07-23T17:38:53;98570.41;;;29.37;60.84
929;BME280;451;47.988;7.842;2022-07-23T17:47:54;98559.50;;;28.66;64.48
929;BME280;451;47.988;7.842;2022-07-23T17:56:56;98567.28;;;28.43;67.41
929;BME280;451;47.988;7.842;2022-07-23T18:05:58;98586.03;;;28.64;66.59
929;BME280;451;47.988;7.842;2022-07-23T18:14:59;98597.81;;;28.05;69.39
929;BME280;451;47.988;7.842;2022-07-23T18:24:01;98608.78;;;27.85;68.92
929;BME280;451;47.988;7.842;2022-07-23T18:33:03;98631.00;;;27.72;70.16
929;BME280;451;47.988;7.842;2022-07-23T18:42:05;98621.50;;;27.79;69.04
929;BME280;451;47.988;7.842;2022-07-23T18:51:10;98626.53;;;27.96;66.94
929;BME280;451;47.988;7.842;2022-07-23T19:00:12;98637.94;;;27.88;67.82
929;BME280;451;47.988;7.842;2022-07-23T19:09:14;98635.38;;;27.57;68.56
929;BME280;451;47.988;7.842;2022-07-23T19:18:17;98656.44;;;27.50;71.10
929;BME280;451;47.988;7.842;2022-07-23T19:27:19;98668.34;;;27.44;70.68
929;BME280;451;47.988;7.842;2022-07-23T19:36:21;98670.25;;;27.39;70.46
929;BME280;451;47.988;7.842;2022-07-23T19:45:23;98699.16;;;27.48;69.97
929;BME280;451;47.988;7.842;2022-07-23T19:54:26;98727.53;;;27.41;70.63
929;BME280;451;47.988;7.842;2022-07-23T20:03:27;98722.38;;;27.44;70.04
929;BME280;451;47.988;7.842;2022-07-23T20:12:29;98729.44;;;26.95;72.21
929;BME280;451;47.988;7.842;2022-07-23T20:21:31;98670.31;;;26.47;72.30
929;BME280;451;47.988;7.842;2022-07-23T20:30:33;98747.72;;;26.62;73.19
929;BME280;451;47.988;7.842;2022-07-23T20:39:35;98744.50;;;26.65;73.14
929;BME280;451;47.988;7.842;2022-07-23T20:48:36;98730.28;;;26.07;80.53
929;BME280;451;47.988;7.842;2022-07-23T20:57:39;98769.72;;;25.72;86.00
929;BME280;451;47.988;7.842;2022-07-23T21:06:41;98759.00;;;25.40;89.15
929;BME280;451;47.988;7.842;2022-07-23T21:15:43;98778.72;;;25.13;91.01
929;BME280;451;47.988;7.842;2022-07-23T21:24:44;98788.22;;;24.94;93.69
929;BME280;451;47.988;7.842;2022-07-23T21:33:49;98747.09;;;24.45;95.25
929;BME280;451;47.988;7.842;2022-07-23T21:42:50;98776.69;;;24.72;95.00
929;BME280;451;47.988;7.842;2022-07-23T21:51:52;98745.03;;;24.30;96.55
929;BME280;451;47.988;7.842;2022-07-23T22:00:56;98771.66;;;24.10;100.00
929;BME280;451;47.988;7.842;2022-07-23T22:09:58;98775.97;;;24.11;100.00
929;BME280;451;47.988;7.842;2022-07-23T22:19:01;98753.38;;;23.68;100.00
929;BME280;451;47.988;7.842;2022-07-23T22:28:04;98783.56;;;23.76;100.00
929;BME280;451;47.988;7.842;2022-07-23T22:37:06;98780.66;;;23.60;100.00
929;BME280;451;47.988;7.842;2022-07-23T22:46:08;98780.84;;;23.54;100.00
929;BME280;451;47.988;7.842;2022-07-23T22:55:09;98785.03;;;23.33;100.00
929;BME280;451;47.988;7.842;2022-07-23T23:04:11;98745.69;;;22.88;100.00
929;BME280;451;47.988;7.842;2022-07-23T23:13:13;98762.75;;;22.99;100.00
929;BME280;451;47.988;7.842;2022-07-23T23:22:15;98784.63;;;23.08;100.00
929;BME280;451;47.988;7.842;2022-07-23T23:31:16;98786.28;;;22.80;100.00
929;BME280;451;47.988;7.842;2022-07-23T23:40:20;98816.63;;;22.69;100.00
929;BME280;451;47.988;7.842;2022-07-23T23:49:22;98796.41;;;22.50;100.00
929;BME280;451;47.988;7.842;2022-07-23T23:58:24;98779.63;;;22.26;100.00
